Woodgate — D5BX7 — position and weather

sailwx.info

Track history (hours):
 
Tides and Currents Weather Stations Pressure Air Temp Water Temp Dewpoint Dewpoint Depression Visibility Wind Speed Wind Dir Waves Ship Positions

Woodgate

Last reported at 2015-Apr-23 07:34 UTC. Time now 2015-May-06 05:25 UTC.
Position N 13°35' E 042°32'.
Warning: this ship's position is 12 days out of date.

Length 169 m; draft 10.2 m.

Type: Cargo ship. MMSI: 636015627.

Date/timePositionNaut miles runAvg speedWind from/ knotsBaromVisibWave heightAir tempDewpointWater temp
2015-Apr-23 07:34N 13°35' E 042°32'1111.1
2015-Apr-23 06:33N 13°45' E 042°26'  
2015-Apr-18 20:04N 31°13' E 032°18'10 0.6
2015-Apr-18 03:09N 31°23' E 032°18'0 0.0
2015-Apr-18 01:12N 31°23' E 032°18'0 0.0
2015-Apr-17 23:24N 31°23' E 032°18'0 0.0
2015-Apr-17 22:21N 31°23' E 032°18'0 0.0
2015-Apr-17 20:06N 31°23' E 032°18'0 0.0
2015-Apr-17 19:33N 31°23' E 032°18'0 0.0
2015-Apr-17 18:24N 31°23' E 032°18'0 0.0
2015-Apr-17 17:33N 31°23' E 032°18'0 0.0
2015-Apr-17 15:33N 31°23' E 032°18'0 0.0
2015-Apr-17 09:09N 31°23' E 032°18'0 0.0
2015-Apr-17 07:12N 31°23' E 032°18'0 0.0
2015-Apr-17 04:21N 31°23' E 032°18'7 1.7
2015-Apr-17 00:33N 31°29' E 032°16'3811.5
2015-Apr-16 21:14N 31°55' E 031°43'811.8
2015-Apr-16 20:33N 32°01' E 031°36'1611.8
2015-Apr-16 19:14N 32°12' E 031°24'811.9
2015-Apr-16 18:33N 32°18' E 031°18'2512.2
2015-Apr-16 16:32N 32°37' E 030°58'1812.3
2015-Apr-16 15:04N 32°50' E 030°44'1011.6
2015-Apr-16 14:14N 32°58' E 030°36'2011.6
2015-Apr-16 12:29N 33°13' E 030°21'1111.3
2015-Apr-16 11:33N 33°21' E 030°12'25711.6
2015-Apr-15 13:22N 36°32' E 026°42'1211.7
2015-Apr-15 12:22N 36°40' E 026°32'1011.4
2015-Apr-15 11:30N 36°47' E 026°23'1311.8
2015-Apr-15 10:24N 36°57' E 026°13'2211.7
2015-Apr-15 08:31N 37°16' E 025°58'1111.9
2015-Apr-15 07:33N 37°26' E 025°51'1311.6
2015-Apr-15 06:23N 37°38' E 025°43'1112.3
2015-Apr-15 05:31N 37°48' E 025°43'231 9.6
2015-Apr-14 05:30N 40°54' E 028°41'1111.1
2015-Apr-14 04:33N 40°56' E 028°55'45 5.6
2015-Apr-13 20:33N 41°31' E 029°32'1 0.5
2015-Apr-13 19:32N 41°32' E 029°32'0 0.5
2015-Apr-13 18:32N 41°32' E 029°31'1 0.7
2015-Apr-13 17:32N 41°32' E 029°30'1 0.9
2015-Apr-13 16:08N 41°33' E 029°29'1 0.8
2015-Apr-13 15:29N 41°33' E 029°28'1 0.8
2015-Apr-13 14:32N 41°33' E 029°27'1 0.9
2015-Apr-13 13:29N 41°34' E 029°26'  
Track history (hours):
 
Tides and Currents Weather Stations Pressure Air Temp Water Temp Dewpoint Dewpoint Depression Visibility Wind Speed Wind Dir Waves Ship Positions

Woodgate

Last reported at 2015-Apr-23 07:34 UTC. Time now 2015-May-06 05:25 UTC.
Position N 13°35' E 042°32'.
Warning: this ship's position is 12 days out of date.

Length 169 m; draft 10.2 m.

Type: Cargo ship. MMSI: 636015627.

Date/timePositionNaut miles runAvg speedWind from/ knotsBaromVisibWave heightAir tempDewpointWater temp
2015-Apr-23 07:34N 13°35' E 042°32'1111.1
2015-Apr-23 06:33N 13°45' E 042°26'  
2015-Apr-18 20:04N 31°13' E 032°18'10 0.6
2015-Apr-18 03:09N 31°23' E 032°18'0 0.0
2015-Apr-18 01:12N 31°23' E 032°18'0 0.0
2015-Apr-17 23:24N 31°23' E 032°18'0 0.0
2015-Apr-17 22:21N 31°23' E 032°18'0 0.0
2015-Apr-17 20:06N 31°23' E 032°18'0 0.0
2015-Apr-17 19:33N 31°23' E 032°18'0 0.0
2015-Apr-17 18:24N 31°23' E 032°18'0 0.0
2015-Apr-17 17:33N 31°23' E 032°18'0 0.0
2015-Apr-17 15:33N 31°23' E 032°18'0 0.0
2015-Apr-17 09:09N 31°23' E 032°18'0 0.0
2015-Apr-17 07:12N 31°23' E 032°18'0 0.0
2015-Apr-17 04:21N 31°23' E 032°18'7 1.7
2015-Apr-17 00:33N 31°29' E 032°16'3811.5
2015-Apr-16 21:14N 31°55' E 031°43'811.8
2015-Apr-16 20:33N 32°01' E 031°36'1611.8
2015-Apr-16 19:14N 32°12' E 031°24'811.9
2015-Apr-16 18:33N 32°18' E 031°18'2512.2
2015-Apr-16 16:32N 32°37' E 030°58'1812.3
2015-Apr-16 15:04N 32°50' E 030°44'1011.6
2015-Apr-16 14:14N 32°58' E 030°36'2011.6
2015-Apr-16 12:29N 33°13' E 030°21'1111.3
2015-Apr-16 11:33N 33°21' E 030°12'25711.6
2015-Apr-15 13:22N 36°32' E 026°42'1211.7
2015-Apr-15 12:22N 36°40' E 026°32'1011.4
2015-Apr-15 11:30N 36°47' E 026°23'1311.8
2015-Apr-15 10:24N 36°57' E 026°13'2211.7
2015-Apr-15 08:31N 37°16' E 025°58'1111.9
2015-Apr-15 07:33N 37°26' E 025°51'1311.6
2015-Apr-15 06:23N 37°38' E 025°43'1112.3
2015-Apr-15 05:31N 37°48' E 025°43'231 9.6
2015-Apr-14 05:30N 40°54' E 028°41'1111.1
2015-Apr-14 04:33N 40°56' E 028°55'45 5.6
2015-Apr-13 20:33N 41°31' E 029°32'1 0.5
2015-Apr-13 19:32N 41°32' E 029°32'0 0.5
2015-Apr-13 18:32N 41°32' E 029°31'1 0.7
2015-Apr-13 17:32N 41°32' E 029°30'1 0.9
2015-Apr-13 16:08N 41°33' E 029°29'1 0.8
2015-Apr-13 15:29N 41°33' E 029°28'1 0.8
2015-Apr-13 14:32N 41°33' E 029°27'1 0.9
2015-Apr-13 13:29N 41°34' E 029°26'  

Dump ship's entire track history